La Pecadora — ZGFW7 — position and weather

sailwx.info

Track history (hours):
 
Tides and Currents Weather Stations Pressure Air Temp Water Temp Dewpoint Dewpoint Depression Visibility Wind Speed Wind Dir Waves Ship Positions

La Pecadora

Last reported at 2017-Nov-16 21:09 UTC. Time now 2017-Nov-18 10:30 UTC.
Position N 28°08' W 015°25'.

Length 21 m; draft 3.5 m.

Type: Sailing vessel. MMSI: 319106800.

Date/timePositionNaut miles runAvg speedWind from/ knotsBaromVisibWave heightAir tempDewpointWater temp
2017-Nov-16 21:09N 28°08' W 015°25'0 0.3
2017-Nov-16 21:00N 28°08' W 015°26'2 4.7
2017-Nov-16 20:30N 28°06' W 015°24'3 6.7
2017-Nov-16 20:00N 28°03' W 015°22'4 7.4
2017-Nov-16 19:30N 27°59' W 015°21'4 7.2
2017-Nov-16 19:00N 27°56' W 015°20'3 6.3
2017-Nov-16 18:30N 27°53' W 015°19'3 5.4
2017-Nov-16 18:00N 27°52' W 015°22'3 6.1
2017-Nov-16 17:29N 27°49' W 015°21'5 5.7
2017-Nov-16 16:38N 27°44' W 015°19'1 6.8
2017-Nov-16 16:29N 27°45' W 015°19'4 8.9
2017-Nov-16 16:00N 27°50' W 015°19'4 7.3
2017-Nov-16 15:31N 27°53' W 015°18'3 5.7
2017-Nov-16 15:01N 27°56' W 015°18'3 6.0
2017-Nov-16 14:31N 27°59' W 015°19'3 6.5
2017-Nov-16 14:01N 28°02' W 015°20'3 5.2
2017-Nov-16 13:31N 28°04' W 015°22'3 5.9
2017-Nov-16 13:00N 28°06' W 015°24'2 3.7
2017-Nov-16 12:31N 28°08' W 015°26'0 0.1
2017-Nov-16 12:00N 28°08' W 015°26'  
2017-Nov-10 16:15N 28°08' W 015°25'0 0.0
2017-Nov-10 16:00N 28°08' W 015°25'0 0.0
2017-Nov-10 15:30N 28°08' W 015°25'0 0.0
2017-Nov-09 18:38N 28°08' W 015°25'0 0.0
2017-Nov-09 18:30N 28°08' W 015°25'0 0.0
2017-Nov-09 18:00N 28°08' W 015°25'0 0.0
2017-Nov-09 17:30N 28°08' W 015°25'0 0.0
2017-Nov-09 17:00N 28°08' W 015°25'  
2017-Nov-07 12:57N 28°08' W 015°25'0 0.0
2017-Nov-07 12:31N 28°08' W 015°25'0 0.0
2017-Nov-07 12:01N 28°08' W 015°25'0 0.0
2017-Nov-07 11:30N 28°08' W 015°25'0 0.0
2017-Nov-07 11:01N 28°08' W 015°25'0 0.0
2017-Nov-07 10:31N 28°08' W 015°25'0 0.0
2017-Nov-07 10:01N 28°08' W 015°25'0 0.0
2017-Nov-07 09:31N 28°08' W 015°25'0 0.0
2017-Nov-07 09:00N 28°08' W 015°25'0 0.0
2017-Nov-07 08:30N 28°08' W 015°25'0 0.0
2017-Nov-07 08:00N 28°08' W 015°25'0 0.0
2017-Nov-07 07:30N 28°08' W 015°25'0 0.0
2017-Nov-07 07:00N 28°08' W 015°25'  
Track history (hours):
 
Tides and Currents Weather Stations Pressure Air Temp Water Temp Dewpoint Dewpoint Depression Visibility Wind Speed Wind Dir Waves Ship Positions

La Pecadora

Last reported at 2017-Nov-16 21:09 UTC. Time now 2017-Nov-18 10:30 UTC.
Position N 28°08' W 015°25'.

Length 21 m; draft 3.5 m.

Type: Sailing vessel. MMSI: 319106800.

Date/timePositionNaut miles runAvg speedWind from/ knotsBaromVisibWave heightAir tempDewpointWater temp
2017-Nov-16 21:09N 28°08' W 015°25'0 0.3
2017-Nov-16 21:00N 28°08' W 015°26'2 4.7
2017-Nov-16 20:30N 28°06' W 015°24'3 6.7
2017-Nov-16 20:00N 28°03' W 015°22'4 7.4
2017-Nov-16 19:30N 27°59' W 015°21'4 7.2
2017-Nov-16 19:00N 27°56' W 015°20'3 6.3
2017-Nov-16 18:30N 27°53' W 015°19'3 5.4
2017-Nov-16 18:00N 27°52' W 015°22'3 6.1
2017-Nov-16 17:29N 27°49' W 015°21'5 5.7
2017-Nov-16 16:38N 27°44' W 015°19'1 6.8
2017-Nov-16 16:29N 27°45' W 015°19'4 8.9
2017-Nov-16 16:00N 27°50' W 015°19'4 7.3
2017-Nov-16 15:31N 27°53' W 015°18'3 5.7
2017-Nov-16 15:01N 27°56' W 015°18'3 6.0
2017-Nov-16 14:31N 27°59' W 015°19'3 6.5
2017-Nov-16 14:01N 28°02' W 015°20'3 5.2
2017-Nov-16 13:31N 28°04' W 015°22'3 5.9
2017-Nov-16 13:00N 28°06' W 015°24'2 3.7
2017-Nov-16 12:31N 28°08' W 015°26'0 0.1
2017-Nov-16 12:00N 28°08' W 015°26'  
2017-Nov-10 16:15N 28°08' W 015°25'0 0.0
2017-Nov-10 16:00N 28°08' W 015°25'0 0.0
2017-Nov-10 15:30N 28°08' W 015°25'0 0.0
2017-Nov-09 18:38N 28°08' W 015°25'0 0.0
2017-Nov-09 18:30N 28°08' W 015°25'0 0.0
2017-Nov-09 18:00N 28°08' W 015°25'0 0.0
2017-Nov-09 17:30N 28°08' W 015°25'0 0.0
2017-Nov-09 17:00N 28°08' W 015°25'  
2017-Nov-07 12:57N 28°08' W 015°25'0 0.0
2017-Nov-07 12:31N 28°08' W 015°25'0 0.0
2017-Nov-07 12:01N 28°08' W 015°25'0 0.0
2017-Nov-07 11:30N 28°08' W 015°25'0 0.0
2017-Nov-07 11:01N 28°08' W 015°25'0 0.0
2017-Nov-07 10:31N 28°08' W 015°25'0 0.0
2017-Nov-07 10:01N 28°08' W 015°25'0 0.0
2017-Nov-07 09:31N 28°08' W 015°25'0 0.0
2017-Nov-07 09:00N 28°08' W 015°25'0 0.0
2017-Nov-07 08:30N 28°08' W 015°25'0 0.0
2017-Nov-07 08:00N 28°08' W 015°25'0 0.0
2017-Nov-07 07:30N 28°08' W 015°25'0 0.0
2017-Nov-07 07:00N 28°08' W 015°25'  

Dump ship's entire track history